Airfield :
LOGIN :

Register | Disclaimer

   EN    FR    IT 

 










Legend :    VFR   Marginal VFR   IFR   Intensive IFR   Very Intensive IFR
Visi :
Ceiling :
>= 8 km
>= 3000ft
5 to 8 km
1000 to 3000 ft
1500m to 5 km
500 to 1000 ft
800 to 1500m
200 to 500 ft
< 800m
< 200 ft
Symbols :   Thunderstorms  Fog  Heavy snow  Heavy precipitations  Wind > 20 kt
SIGMETs :     Misc.  Thunderstorms  Icing  Turbulence  Mountain Waves  Volcanic Ashes






- Airport Elevation : 458 ft


LFSI - St-Dizier

CURRENT METAR :
  • 170800Z AUTO 00000KT 5000 BR NSC M02/M03 Q1009

EXPIRED METARs :
  • 170730Z AUTO 04001KT 3200 BR NSC M02/M03 Q1009
  • 170700Z AUTO 00000KT 3100 1300 R11/0900D BR NSC M02/M02 Q1009
  • 170630Z AUTO 00000KT 4800 R11/1300U BR NSC M02/M02 Q1009
  • 170600Z AUTO 10001KT 5000 BR NSC M02/M02 Q1009
  • 170530Z AUTO 07001KT 4600 BR NSC M01/M02 Q1009

TAF AMD TAF LFSI
Valid from the 17 at 03:00 until the 18 at 03:00 UTC


170357Z 1703/1803 08005KT CAVOK
TEMPO 1703/1709 2000 BR
TEMPO 1705/1709 0800 FG
BECMG 1709/1711 BKN010



MET'MAP, your aeronautical weather chart ! - Copyright ORBIFLY December 2007 - Disclaimer

ORBIFLY MET'MAP TEAM :

Programming & Development : Alexandra Zaïnal
Concept & Development : Baudouin d'Aumeries
Co-Development & Prog : Marc-Olivier Méhu
Technical & hardware support : Manuel Goepfert

Contact : metmap@orbifly.com




SOURCES & CREDITS :

   NOAA